sensor_id;sensor_type;location;lat;lon;timestamp;temperature;humidity
35894;DHT22;21994;48.204;16.516;2023-04-24T00:00:20;14.90;99.90
35894;DHT22;21994;48.204;16.516;2023-04-24T00:02:46;14.90;99.90
35894;DHT22;21994;48.204;16.516;2023-04-24T00:05:14;14.80;99.90
35894;DHT22;21994;48.204;16.516;2023-04-24T00:07:41;14.70;99.90
35894;DHT22;21994;48.204;16.516;2023-04-24T00:10:08;14.60;99.90
35894;DHT22;21994;48.204;16.516;2023-04-24T00:12:35;14.30;99.90
35894;DHT22;21994;48.204;16.516;2023-04-24T00:15:02;14.20;99.90
35894;DHT22;21994;48.204;16.516;2023-04-24T00:17:28;14.10;99.90
35894;DHT22;21994;48.204;16.516;2023-04-24T00:19:54;14.10;99.90
35894;DHT22;21994;48.204;16.516;2023-04-24T00:22:27;13.90;99.90
35894;DHT22;21994;48.204;16.516;2023-04-24T00:24:54;13.80;99.90
35894;DHT22;21994;48.204;16.516;2023-04-24T00:27:20;13.70;99.90
35894;DHT22;21994;48.204;16.516;2023-04-24T00:29:46;13.70;99.90
35894;DHT22;21994;48.204;16.516;2023-04-24T00:32:13;13.60;99.90
35894;DHT22;21994;48.204;16.516;2023-04-24T00:34:39;13.60;99.90
35894;DHT22;21994;48.204;16.516;2023-04-24T00:37:06;13.50;99.90
35894;DHT22;21994;48.204;16.516;2023-04-24T00:39:32;13.40;99.90
35894;DHT22;21994;48.204;16.516;2023-04-24T00:41:58;13.30;99.90
35894;DHT22;21994;48.204;16.516;2023-04-24T00:44:25;13.20;99.90
35894;DHT22;21994;48.204;16.516;2023-04-24T00:46:51;13.10;99.90
35894;DHT22;21994;48.204;16.516;2023-04-24T00:49:23;13.10;99.90
35894;DHT22;21994;48.204;16.516;2023-04-24T00:51:49;13.00;99.90
35894;DHT22;21994;48.204;16.516;2023-04-24T00:54:17;13.00;99.90
35894;DHT22;21994;48.204;16.516;2023-04-24T00:56:44;13.00;99.90
35894;DHT22;21994;48.204;16.516;2023-04-24T00:59:12;13.00;99.90
35894;DHT22;21994;48.204;16.516;2023-04-24T01:01:39;12.90;99.90
35894;DHT22;21994;48.204;16.516;2023-04-24T01:04:09;12.80;99.90
35894;DHT22;21994;48.204;16.516;2023-04-24T01:06:38;12.80;99.90
35894;DHT22;21994;48.204;16.516;2023-04-24T01:09:05;12.80;99.90
35894;DHT22;21994;48.204;16.516;2023-04-24T01:11:34;12.80;99.90
35894;DHT22;21994;48.204;16.516;2023-04-24T01:14:00;12.80;99.90
35894;DHT22;21994;48.204;16.516;2023-04-24T01:16:26;12.70;99.90
35894;DHT22;21994;48.204;16.516;2023-04-24T01:18:52;12.70;99.90
35894;DHT22;21994;48.204;16.516;2023-04-24T01:21:20;12.70;99.90
35894;DHT22;21994;48.204;16.516;2023-04-24T01:23:47;12.60;99.90
35894;DHT22;21994;48.204;16.516;2023-04-24T01:26:14;12.50;99.90
35894;DHT22;21994;48.204;16.516;2023-04-24T01:28:41;12.40;99.90
35894;DHT22;21994;48.204;16.516;2023-04-24T01:31:07;12.40;99.90
35894;DHT22;21994;48.204;16.516;2023-04-24T01:33:34;12.30;99.90
35894;DHT22;21994;48.204;16.516;2023-04-24T01:36:00;12.20;99.90
35894;DHT22;21994;48.204;16.516;2023-04-24T01:38:26;12.20;99.90
35894;DHT22;21994;48.204;16.516;2023-04-24T01:40:52;12.10;99.90
35894;DHT22;21994;48.204;16.516;2023-04-24T01:43:19;12.10;99.90
35894;DHT22;21994;48.204;16.516;2023-04-24T01:45:45;12.00;99.90
35894;DHT22;21994;48.204;16.516;2023-04-24T01:48:14;11.90;99.90
35894;DHT22;21994;48.204;16.516;2023-04-24T01:50:40;11.80;99.90
35894;DHT22;21994;48.204;16.516;2023-04-24T01:53:06;11.70;99.90
35894;DHT22;21994;48.204;16.516;2023-04-24T01:55:32;11.60;99.90
35894;DHT22;21994;48.204;16.516;2023-04-24T01:57:59;11.50;99.90
35894;DHT22;21994;48.204;16.516;2023-04-24T02:00:26;11.40;99.90
35894;DHT22;21994;48.204;16.516;2023-04-24T02:02:51;11.40;99.90
35894;DHT22;21994;48.204;16.516;2023-04-24T02:05:17;11.30;99.90
35894;DHT22;21994;48.204;16.516;2023-04-24T02:07:43;11.20;99.90
35894;DHT22;21994;48.204;16.516;2023-04-24T02:10:10;11.10;99.90
35894;DHT22;21994;48.204;16.516;2023-04-24T02:12:36;11.00;99.90
35894;DHT22;21994;48.204;16.516;2023-04-24T02:15:02;10.90;99.90
35894;DHT22;21994;48.204;16.516;2023-04-24T02:17:28;10.90;99.90
35894;DHT22;21994;48.204;16.516;2023-04-24T02:19:54;10.70;99.90
35894;DHT22;21994;48.204;16.516;2023-04-24T02:22:20;10.70;99.90
35894;DHT22;21994;48.204;16.516;2023-04-24T02:24:46;10.70;99.90
35894;DHT22;21994;48.204;16.516;2023-04-24T02:27:12;10.60;99.90
35894;DHT22;21994;48.204;16.516;2023-04-24T02:29:38;10.60;99.90
35894;DHT22;21994;48.204;16.516;2023-04-24T02:32:04;10.50;99.90
35894;DHT22;21994;48.204;16.516;2023-04-24T02:34:30;10.50;99.90
35894;DHT22;21994;48.204;16.516;2023-04-24T02:36:56;10.50;99.90
35894;DHT22;21994;48.204;16.516;2023-04-24T02:39:22;10.50;99.90
35894;DHT22;21994;48.204;16.516;2023-04-24T02:41:48;10.40;99.90
35894;DHT22;21994;48.204;16.516;2023-04-24T02:44:14;10.50;99.90
35894;DHT22;21994;48.204;16.516;2023-04-24T02:46:40;10.60;99.90
35894;DHT22;21994;48.204;16.516;2023-04-24T02:49:07;10.50;99.90
35894;DHT22;21994;48.204;16.516;2023-04-24T02:51:33;10.40;99.90
35894;DHT22;21994;48.204;16.516;2023-04-24T02:53:59;10.60;99.90
35894;DHT22;21994;48.204;16.516;2023-04-24T02:56:25;11.10;99.90
35894;DHT22;21994;48.204;16.516;2023-04-24T02:58:51;11.40;99.90
35894;DHT22;21994;48.204;16.516;2023-04-24T03:01:17;11.50;99.90
35894;DHT22;21994;48.204;16.516;2023-04-24T03:03:43;11.50;99.90
35894;DHT22;21994;48.204;16.516;2023-04-24T03:06:09;11.50;99.90
35894;DHT22;21994;48.204;16.516;2023-04-24T03:08:35;11.50;99.90
35894;DHT22;21994;48.204;16.516;2023-04-24T03:11:01;11.60;99.90
35894;DHT22;21994;48.204;16.516;2023-04-24T03:13:27;11.70;99.90
35894;DHT22;21994;48.204;16.516;2023-04-24T03:15:53;11.70;99.90
35894;DHT22;21994;48.204;16.516;2023-04-24T03:18:19;11.70;99.90
35894;DHT22;21994;48.204;16.516;2023-04-24T03:20:46;11.80;99.90
35894;DHT22;21994;48.204;16.516;2023-04-24T03:23:12;11.80;99.90
35894;DHT22;21994;48.204;16.516;2023-04-24T03:25:38;12.00;99.90
35894;DHT22;21994;48.204;16.516;2023-04-24T03:28:04;12.10;99.90
35894;DHT22;21994;48.204;16.516;2023-04-24T03:30:30;12.10;99.90
35894;DHT22;21994;48.204;16.516;2023-04-24T03:32:56;12.20;99.90
35894;DHT22;21994;48.204;16.516;2023-04-24T03:35:22;12.20;99.90
35894;DHT22;21994;48.204;16.516;2023-04-24T03:37:48;12.30;99.90
35894;DHT22;21994;48.204;16.516;2023-04-24T03:40:14;12.30;99.90
35894;DHT22;21994;48.204;16.516;2023-04-24T03:42:40;12.30;99.90
35894;DHT22;21994;48.204;16.516;2023-04-24T03:45:06;12.30;99.90
35894;DHT22;21994;48.204;16.516;2023-04-24T03:47:33;12.30;99.90
35894;DHT22;21994;48.204;16.516;2023-04-24T03:49:58;12.30;99.90
35894;DHT22;21994;48.204;16.516;2023-04-24T03:52:24;12.30;99.90
35894;DHT22;21994;48.204;16.516;2023-04-24T03:54:50;12.30;99.90
35894;DHT22;21994;48.204;16.516;2023-04-24T03:57:16;12.30;99.90
35894;DHT22;21994;48.204;16.516;2023-04-24T03:59:42;12.30;99.90
35894;DHT22;21994;48.204;16.516;2023-04-24T04:02:08;12.30;99.90
35894;DHT22;21994;48.204;16.516;2023-04-24T04:04:34;12.30;99.90
35894;DHT22;21994;48.204;16.516;2023-04-24T04:07:00;12.30;99.90
35894;DHT22;21994;48.204;16.516;2023-04-24T04:09:28;12.30;99.90
35894;DHT22;21994;48.204;16.516;2023-04-24T04:11:54;12.40;99.90
35894;DHT22;21994;48.204;16.516;2023-04-24T04:14:21;12.60;99.90
35894;DHT22;21994;48.204;16.516;2023-04-24T04:16:47;12.70;99.90
35894;DHT22;21994;48.204;16.516;2023-04-24T04:19:13;12.80;99.90
35894;DHT22;21994;48.204;16.516;2023-04-24T04:21:39;12.80;99.90
35894;DHT22;21994;48.204;16.516;2023-04-24T04:24:05;12.90;99.90
35894;DHT22;21994;48.204;16.516;2023-04-24T04:26:32;12.90;99.90
35894;DHT22;21994;48.204;16.516;2023-04-24T04:28:59;12.90;99.90
35894;DHT22;21994;48.204;16.516;2023-04-24T04:31:26;12.90;99.90
35894;DHT22;21994;48.204;16.516;2023-04-24T04:33:52;12.90;99.90
35894;DHT22;21994;48.204;16.516;2023-04-24T04:36:18;13.10;99.90
35894;DHT22;21994;48.204;16.516;2023-04-24T04:38:44;13.10;99.90
35894;DHT22;21994;48.204;16.516;2023-04-24T04:41:10;13.10;99.90
35894;DHT22;21994;48.204;16.516;2023-04-24T04:43:36;13.20;99.90
35894;DHT22;21994;48.204;16.516;2023-04-24T04:46:03;13.20;99.90
35894;DHT22;21994;48.204;16.516;2023-04-24T04:48:29;13.10;99.90
35894;DHT22;21994;48.204;16.516;2023-04-24T04:50:57;13.20;99.90
35894;DHT22;21994;48.204;16.516;2023-04-24T04:53:23;13.20;99.90
35894;DHT22;21994;48.204;16.516;2023-04-24T04:55:49;13.20;99.90
35894;DHT22;21994;48.204;16.516;2023-04-24T04:58:15;13.20;99.90
35894;DHT22;21994;48.204;16.516;2023-04-24T05:00:41;13.30;99.90
35894;DHT22;21994;48.204;16.516;2023-04-24T05:03:07;13.30;99.90
35894;DHT22;21994;48.204;16.516;2023-04-24T05:05:33;13.20;99.90
35894;DHT22;21994;48.204;16.516;2023-04-24T05:07:59;13.20;99.90
35894;DHT22;21994;48.204;16.516;2023-04-24T05:10:25;13.20;99.90
35894;DHT22;21994;48.204;16.516;2023-04-24T05:12:51;13.30;99.90
35894;DHT22;21994;48.204;16.516;2023-04-24T05:15:17;13.40;99.90
35894;DHT22;21994;48.204;16.516;2023-04-24T05:17:43;13.50;99.90
35894;DHT22;21994;48.204;16.516;2023-04-24T05:20:09;13.50;99.90
35894;DHT22;21994;48.204;16.516;2023-04-24T05:22:35;13.60;99.90
35894;DHT22;21994;48.204;16.516;2023-04-24T05:25:01;13.70;99.90
35894;DHT22;21994;48.204;16.516;2023-04-24T05:27:28;13.70;99.90
35894;DHT22;21994;48.204;16.516;2023-04-24T05:29:54;13.80;99.90
35894;DHT22;21994;48.204;16.516;2023-04-24T05:32:20;13.90;99.90
35894;DHT22;21994;48.204;16.516;2023-04-24T05:34:46;14.00;99.90
35894;DHT22;21994;48.204;16.516;2023-04-24T05:37:12;14.00;99.90
35894;DHT22;21994;48.204;16.516;2023-04-24T05:39:38;14.10;99.90
35894;DHT22;21994;48.204;16.516;2023-04-24T05:42:04;14.20;99.90
35894;DHT22;21994;48.204;16.516;2023-04-24T05:44:30;14.30;99.90
35894;DHT22;21994;48.204;16.516;2023-04-24T05:46:56;14.50;99.90
35894;DHT22;21994;48.204;16.516;2023-04-24T05:49:22;14.70;99.90
35894;DHT22;21994;48.204;16.516;2023-04-24T05:51:48;14.80;99.90
35894;DHT22;21994;48.204;16.516;2023-04-24T05:54:14;14.90;99.90
35894;DHT22;21994;48.204;16.516;2023-04-24T05:56:40;15.00;99.90
35894;DHT22;21994;48.204;16.516;2023-04-24T05:59:06;15.10;99.90
35894;DHT22;21994;48.204;16.516;2023-04-24T06:01:33;15.10;99.90
35894;DHT22;21994;48.204;16.516;2023-04-24T06:03:59;15.10;99.90
35894;DHT22;21994;48.204;16.516;2023-04-24T06:06:26;15.00;99.90
35894;DHT22;21994;48.204;16.516;2023-04-24T06:08:52;15.10;99.90
35894;DHT22;21994;48.204;16.516;2023-04-24T06:11:18;15.00;99.90
35894;DHT22;21994;48.204;16.516;2023-04-24T06:13:44;15.00;99.90
35894;DHT22;21994;48.204;16.516;2023-04-24T06:16:11;15.00;99.90
35894;DHT22;21994;48.204;16.516;2023-04-24T06:18:37;14.90;99.90
35894;DHT22;21994;48.204;16.516;2023-04-24T06:21:03;14.90;99.90
35894;DHT22;21994;48.204;16.516;2023-04-24T06:23:29;15.00;99.90
35894;DHT22;21994;48.204;16.516;2023-04-24T06:25:58;15.00;99.90
35894;DHT22;21994;48.204;16.516;2023-04-24T06:28:24;15.10;99.90
35894;DHT22;21994;48.204;16.516;2023-04-24T06:30:50;15.20;99.90
35894;DHT22;21994;48.204;16.516;2023-04-24T06:33:16;15.30;99.90
35894;DHT22;21994;48.204;16.516;2023-04-24T06:35:42;15.20;99.90
35894;DHT22;21994;48.204;16.516;2023-04-24T06:38:08;15.30;99.90
35894;DHT22;21994;48.204;16.516;2023-04-24T06:40:34;15.40;99.90
35894;DHT22;21994;48.204;16.516;2023-04-24T06:43:00;15.40;99.90
35894;DHT22;21994;48.204;16.516;2023-04-24T06:45:29;15.50;99.90
35894;DHT22;21994;48.204;16.516;2023-04-24T06:47:55;15.50;99.90
35894;DHT22;21994;48.204;16.516;2023-04-24T06:50:22;15.50;99.90
35894;DHT22;21994;48.204;16.516;2023-04-24T06:52:48;15.70;99.90
35894;DHT22;21994;48.204;16.516;2023-04-24T06:55:13;15.80;99.90
35894;DHT22;21994;48.204;16.516;2023-04-24T06:57:42;15.90;99.90
35894;DHT22;21994;48.204;16.516;2023-04-24T07:00:09;16.10;99.90
35894;DHT22;21994;48.204;16.516;2023-04-24T07:02:36;16.10;99.90
35894;DHT22;21994;48.204;16.516;2023-04-24T07:05:04;16.10;99.90
35894;DHT22;21994;48.204;16.516;2023-04-24T07:07:30;16.10;99.90
35894;DHT22;21994;48.204;16.516;2023-04-24T07:09:56;16.40;99.90
35894;DHT22;21994;48.204;16.516;2023-04-24T07:12:23;16.50;99.90
35894;DHT22;21994;48.204;16.516;2023-04-24T07:14:50;16.60;99.90
35894;DHT22;21994;48.204;16.516;2023-04-24T07:17:16;16.80;99.90
35894;DHT22;21994;48.204;16.516;2023-04-24T07:19:42;16.90;99.90
35894;DHT22;21994;48.204;16.516;2023-04-24T07:22:08;17.00;99.90
35894;DHT22;21994;48.204;16.516;2023-04-24T07:24:34;17.20;99.90
35894;DHT22;21994;48.204;16.516;2023-04-24T07:26:59;17.20;99.90
35894;DHT22;21994;48.204;16.516;2023-04-24T07:29:28;17.20;99.90
35894;DHT22;21994;48.204;16.516;2023-04-24T07:31:54;17.00;99.90
35894;DHT22;21994;48.204;16.516;2023-04-24T07:34:21;16.80;99.90
35894;DHT22;21994;48.204;16.516;2023-04-24T07:36:48;16.80;99.90
35894;DHT22;21994;48.204;16.516;2023-04-24T07:39:13;16.60;99.90
35894;DHT22;21994;48.204;16.516;2023-04-24T07:41:39;16.60;99.90
35894;DHT22;21994;48.204;16.516;2023-04-24T07:44:05;16.60;99.90
35894;DHT22;21994;48.204;16.516;2023-04-24T07:46:31;16.50;99.90
35894;DHT22;21994;48.204;16.516;2023-04-24T07:48:57;16.60;99.90
35894;DHT22;21994;48.204;16.516;2023-04-24T07:51:25;16.50;99.90
35894;DHT22;21994;48.204;16.516;2023-04-24T07:53:53;16.40;99.90
35894;DHT22;21994;48.204;16.516;2023-04-24T07:56:21;16.40;99.90
35894;DHT22;21994;48.204;16.516;2023-04-24T07:58:46;16.40;99.90
35894;DHT22;21994;48.204;16.516;2023-04-24T08:01:12;16.60;99.90
35894;DHT22;21994;48.204;16.516;2023-04-24T08:03:38;16.60;99.90
35894;DHT22;21994;48.204;16.516;2023-04-24T08:06:04;16.60;99.90
35894;DHT22;21994;48.204;16.516;2023-04-24T08:08:30;16.60;99.90
35894;DHT22;21994;48.204;16.516;2023-04-24T08:10:56;16.50;99.90
35894;DHT22;21994;48.204;16.516;2023-04-24T08:13:22;16.40;99.90
35894;DHT22;21994;48.204;16.516;2023-04-24T08:15:48;16.20;99.90
35894;DHT22;21994;48.204;16.516;2023-04-24T08:18:14;16.10;99.90
35894;DHT22;21994;48.204;16.516;2023-04-24T08:20:41;16.00;99.90
35894;DHT22;21994;48.204;16.516;2023-04-24T08:23:08;16.00;99.90
35894;DHT22;21994;48.204;16.516;2023-04-24T08:25:34;16.00;99.90
35894;DHT22;21994;48.204;16.516;2023-04-24T08:28:02;15.90;99.90
35894;DHT22;21994;48.204;16.516;2023-04-24T08:30:29;15.90;99.90
35894;DHT22;21994;48.204;16.516;2023-04-24T08:32:56;15.90;99.90
35894;DHT22;21994;48.204;16.516;2023-04-24T08:35:25;15.70;99.90
35894;DHT22;21994;48.204;16.516;2023-04-24T08:37:52;15.70;99.90
35894;DHT22;21994;48.204;16.516;2023-04-24T08:40:22;15.60;99.90
35894;DHT22;21994;48.204;16.516;2023-04-24T08:42:55;15.50;99.90
35894;DHT22;21994;48.204;16.516;2023-04-24T08:45:24;15.40;99.90
35894;DHT22;21994;48.204;16.516;2023-04-24T08:47:52;15.30;99.90
35894;DHT22;21994;48.204;16.516;2023-04-24T08:50:22;15.30;99.90
35894;DHT22;21994;48.204;16.516;2023-04-24T08:52:50;15.20;99.90
35894;DHT22;21994;48.204;16.516;2023-04-24T08:55:19;15.10;99.90
35894;DHT22;21994;48.204;16.516;2023-04-24T08:57:50;15.10;99.90
35894;DHT22;21994;48.204;16.516;2023-04-24T09:00:20;15.10;99.90
35894;DHT22;21994;48.204;16.516;2023-04-24T09:02:49;15.00;99.90
35894;DHT22;21994;48.204;16.516;2023-04-24T09:05:16;15.00;99.90
35894;DHT22;21994;48.204;16.516;2023-04-24T09:07:45;15.00;99.90
35894;DHT22;21994;48.204;16.516;2023-04-24T09:10:15;15.00;99.90
35894;DHT22;21994;48.204;16.516;2023-04-24T09:12:41;14.90;99.90
35894;DHT22;21994;48.204;16.516;2023-04-24T09:15:08;14.80;99.90
35894;DHT22;21994;48.204;16.516;2023-04-24T09:17:35;14.50;99.90
35894;DHT22;21994;48.204;16.516;2023-04-24T09:20:01;14.20;99.90
35894;DHT22;21994;48.204;16.516;2023-04-24T09:22:32;14.10;99.90
35894;DHT22;21994;48.204;16.516;2023-04-24T09:25:08;13.80;99.90
35894;DHT22;21994;48.204;16.516;2023-04-24T09:27:35;13.70;99.90
35894;DHT22;21994;48.204;16.516;2023-04-24T09:30:01;13.60;99.90
35894;DHT22;21994;48.204;16.516;2023-04-24T09:32:28;13.50;99.90
35894;DHT22;21994;48.204;16.516;2023-04-24T09:37:40;13.50;99.90
35894;DHT22;21994;48.204;16.516;2023-04-24T09:40:27;13.60;99.90
35894;DHT22;21994;48.204;16.516;2023-04-24T09:42:55;13.60;99.90
35894;DHT22;21994;48.204;16.516;2023-04-24T09:45:28;13.70;99.90
35894;DHT22;21994;48.204;16.516;2023-04-24T09:48:01;13.60;99.90
35894;DHT22;21994;48.204;16.516;2023-04-24T09:50:30;13.60;99.90
35894;DHT22;21994;48.204;16.516;2023-04-24T09:53:03;13.70;99.90
35894;DHT22;21994;48.204;16.516;2023-04-24T09:55:31;13.70;99.90
35894;DHT22;21994;48.204;16.516;2023-04-24T09:58:01;13.70;99.90
35894;DHT22;21994;48.204;16.516;2023-04-24T10:00:32;13.70;99.90
35894;DHT22;21994;48.204;16.516;2023-04-24T10:03:00;13.70;99.90
35894;DHT22;21994;48.204;16.516;2023-04-24T10:05:34;13.70;99.90
35894;DHT22;21994;48.204;16.516;2023-04-24T10:08:09;13.80;99.90
35894;DHT22;21994;48.204;16.516;2023-04-24T10:10:40;13.80;99.90
35894;DHT22;21994;48.204;16.516;2023-04-24T10:13:08;13.80;99.90
35894;DHT22;21994;48.204;16.516;2023-04-24T10:15:36;13.70;99.90
35894;DHT22;21994;48.204;16.516;2023-04-24T10:18:04;13.80;99.90
35894;DHT22;21994;48.204;16.516;2023-04-24T10:20:33;13.90;99.90
35894;DHT22;21994;48.204;16.516;2023-04-24T10:23:00;13.90;99.90
35894;DHT22;21994;48.204;16.516;2023-04-24T10:25:31;13.90;99.90
35894;DHT22;21994;48.204;16.516;2023-04-24T10:27:59;13.80;99.90
35894;DHT22;21994;48.204;16.516;2023-04-24T10:30:34;13.90;99.90
35894;DHT22;21994;48.204;16.516;2023-04-24T10:33:02;13.90;99.90
35894;DHT22;21994;48.204;16.516;2023-04-24T10:35:32;14.10;99.90
35894;DHT22;21994;48.204;16.516;2023-04-24T10:38:09;14.00;99.90
35894;DHT22;21994;48.204;16.516;2023-04-24T10:40:37;14.10;99.90
35894;DHT22;21994;48.204;16.516;2023-04-24T10:43:07;14.10;99.90
35894;DHT22;21994;48.204;16.516;2023-04-24T10:45:37;14.10;99.90
35894;DHT22;21994;48.204;16.516;2023-04-24T10:48:05;14.00;99.90
35894;DHT22;21994;48.204;16.516;2023-04-24T10:50:52;14.00;99.90
35894;DHT22;21994;48.204;16.516;2023-04-24T10:53:21;13.90;99.90
35894;DHT22;21994;48.204;16.516;2023-04-24T10:56:03;13.80;99.90
35894;DHT22;21994;48.204;16.516;2023-04-24T10:58:50;13.70;99.90
35894;DHT22;21994;48.204;16.516;2023-04-24T11:01:25;13.60;99.90
35894;DHT22;21994;48.204;16.516;2023-04-24T11:04:02;13.60;99.90
35894;DHT22;21994;48.204;16.516;2023-04-24T11:06:33;13.50;99.90
35894;DHT22;21994;48.204;16.516;2023-04-24T11:09:05;13.60;99.90
35894;DHT22;21994;48.204;16.516;2023-04-24T11:11:38;13.50;99.90
35894;DHT22;21994;48.204;16.516;2023-04-24T11:14:07;13.50;99.90
35894;DHT22;21994;48.204;16.516;2023-04-24T11:19:27;13.50;99.90
35894;DHT22;21994;48.204;16.516;2023-04-24T11:21:59;13.40;99.90
35894;DHT22;21994;48.204;16.516;2023-04-24T11:32:24;13.40;99.90
35894;DHT22;21994;48.204;16.516;2023-04-24T11:34:56;13.40;99.90
35894;DHT22;21994;48.204;16.516;2023-04-24T11:37:25;13.40;99.90
35894;DHT22;21994;48.204;16.516;2023-04-24T11:39:57;13.30;99.90
35894;DHT22;21994;48.204;16.516;2023-04-24T11:42:24;13.40;99.90
35894;DHT22;21994;48.204;16.516;2023-04-24T11:44:55;13.40;99.90
35894;DHT22;21994;48.204;16.516;2023-04-24T11:47:31;13.40;99.90
35894;DHT22;21994;48.204;16.516;2023-04-24T11:49:59;13.40;99.90
35894;DHT22;21994;48.204;16.516;2023-04-24T11:52:26;13.30;99.90
35894;DHT22;21994;48.204;16.516;2023-04-24T11:54:53;13.40;99.90
35894;DHT22;21994;48.204;16.516;2023-04-24T11:57:19;13.40;99.90
35894;DHT22;21994;48.204;16.516;2023-04-24T11:59:47;13.30;99.90
35894;DHT22;21994;48.204;16.516;2023-04-24T12:02:26;13.50;99.90
35894;DHT22;21994;48.204;16.516;2023-04-24T12:04:53;13.50;99.90
35894;DHT22;21994;48.204;16.516;2023-04-24T12:07:20;13.40;99.90
35894;DHT22;21994;48.204;16.516;2023-04-24T12:09:47;13.50;99.90
35894;DHT22;21994;48.204;16.516;2023-04-24T12:12:15;13.60;99.90
35894;DHT22;21994;48.204;16.516;2023-04-24T12:14:47;13.60;99.90
35894;DHT22;21994;48.204;16.516;2023-04-24T12:17:15;13.80;99.90
35894;DHT22;21994;48.204;16.516;2023-04-24T12:19:46;13.80;99.90
35894;DHT22;21994;48.204;16.516;2023-04-24T12:22:13;13.90;99.90
35894;DHT22;21994;48.204;16.516;2023-04-24T12:24:56;13.90;99.90
35894;DHT22;21994;48.204;16.516;2023-04-24T12:27:22;13.90;99.90
35894;DHT22;21994;48.204;16.516;2023-04-24T12:30:13;14.00;99.90
35894;DHT22;21994;48.204;16.516;2023-04-24T12:32:46;14.00;99.90
35894;DHT22;21994;48.204;16.516;2023-04-24T12:35:14;14.00;99.90
35894;DHT22;21994;48.204;16.516;2023-04-24T12:37:45;14.20;99.90
35894;DHT22;21994;48.204;16.516;2023-04-24T12:40:12;14.40;99.90
35894;DHT22;21994;48.204;16.516;2023-04-24T12:42:49;14.40;99.90
35894;DHT22;21994;48.204;16.516;2023-04-24T12:45:17;14.40;99.90
35894;DHT22;21994;48.204;16.516;2023-04-24T12:47:45;14.40;99.90
35894;DHT22;21994;48.204;16.516;2023-04-24T12:50:15;14.40;99.90
35894;DHT22;21994;48.204;16.516;2023-04-24T12:52:42;14.50;99.90
35894;DHT22;21994;48.204;16.516;2023-04-24T12:55:09;14.50;99.90
35894;DHT22;21994;48.204;16.516;2023-04-24T12:57:37;14.50;99.90
35894;DHT22;21994;48.204;16.516;2023-04-24T13:00:05;14.60;99.90
35894;DHT22;21994;48.204;16.516;2023-04-24T13:02:33;14.80;99.90
35894;DHT22;21994;48.204;16.516;2023-04-24T13:04:59;14.70;99.90
35894;DHT22;21994;48.204;16.516;2023-04-24T13:07:27;14.70;99.90
35894;DHT22;21994;48.204;16.516;2023-04-24T13:09:54;14.70;99.90
35894;DHT22;21994;48.204;16.516;2023-04-24T13:12:21;14.70;99.90
35894;DHT22;21994;48.204;16.516;2023-04-24T13:14:49;14.60;99.90
35894;DHT22;21994;48.204;16.516;2023-04-24T13:17:15;14.80;99.90
35894;DHT22;21994;48.204;16.516;2023-04-24T13:19:42;14.80;99.90
35894;DHT22;21994;48.204;16.516;2023-04-24T13:22:11;14.70;99.90
35894;DHT22;21994;48.204;16.516;2023-04-24T13:24:38;14.70;99.90
35894;DHT22;21994;48.204;16.516;2023-04-24T13:27:06;14.80;99.90
35894;DHT22;21994;48.204;16.516;2023-04-24T13:29:32;14.80;99.90
35894;DHT22;21994;48.204;16.516;2023-04-24T13:31:58;14.90;99.90
35894;DHT22;21994;48.204;16.516;2023-04-24T13:34:26;14.90;99.90
35894;DHT22;21994;48.204;16.516;2023-04-24T13:36:53;14.80;99.90
35894;DHT22;21994;48.204;16.516;2023-04-24T13:39:20;14.80;99.90
35894;DHT22;21994;48.204;16.516;2023-04-24T13:41:46;14.80;99.90
35894;DHT22;21994;48.204;16.516;2023-04-24T13:44:14;14.80;99.90
35894;DHT22;21994;48.204;16.516;2023-04-24T13:46:42;14.70;99.90
35894;DHT22;21994;48.204;16.516;2023-04-24T13:49:10;14.60;99.90
35894;DHT22;21994;48.204;16.516;2023-04-24T13:51:37;14.70;99.90
35894;DHT22;21994;48.204;16.516;2023-04-24T13:54:03;14.60;99.90
35894;DHT22;21994;48.204;16.516;2023-04-24T13:56:29;14.70;99.90
35894;DHT22;21994;48.204;16.516;2023-04-24T13:58:56;14.80;99.90
35894;DHT22;21994;48.204;16.516;2023-04-24T14:01:22;14.70;99.90
35894;DHT22;21994;48.204;16.516;2023-04-24T14:03:53;14.90;99.90
35894;DHT22;21994;48.204;16.516;2023-04-24T14:06:19;14.90;99.90
35894;DHT22;21994;48.204;16.516;2023-04-24T14:08:46;14.90;99.90
35894;DHT22;21994;48.204;16.516;2023-04-24T14:11:13;14.60;99.90
35894;DHT22;21994;48.204;16.516;2023-04-24T14:13:41;14.50;99.90
35894;DHT22;21994;48.204;16.516;2023-04-24T14:16:07;14.60;99.90
35894;DHT22;21994;48.204;16.516;2023-04-24T14:18:33;14.50;99.90
35894;DHT22;21994;48.204;16.516;2023-04-24T14:21:00;14.20;99.90
35894;DHT22;21994;48.204;16.516;2023-04-24T14:23:27;14.30;99.90
35894;DHT22;21994;48.204;16.516;2023-04-24T14:25:53;14.20;99.90
35894;DHT22;21994;48.204;16.516;2023-04-24T14:28:20;14.10;99.90
35894;DHT22;21994;48.204;16.516;2023-04-24T14:30:47;14.00;99.90
35894;DHT22;21994;48.204;16.516;2023-04-24T14:33:13;13.90;99.90
35894;DHT22;21994;48.204;16.516;2023-04-24T14:35:42;13.90;99.90
35894;DHT22;21994;48.204;16.516;2023-04-24T14:38:09;14.00;99.90
35894;DHT22;21994;48.204;16.516;2023-04-24T14:40:36;13.80;99.90
35894;DHT22;21994;48.204;16.516;2023-04-24T14:43:02;13.50;99.90
35894;DHT22;21994;48.204;16.516;2023-04-24T14:45:28;13.20;99.90
35894;DHT22;21994;48.204;16.516;2023-04-24T14:47:55;13.10;99.90
35894;DHT22;21994;48.204;16.516;2023-04-24T14:50:22;13.00;99.90
35894;DHT22;21994;48.204;16.516;2023-04-24T14:52:48;13.00;99.90
35894;DHT22;21994;48.204;16.516;2023-04-24T14:55:14;12.90;99.90
35894;DHT22;21994;48.204;16.516;2023-04-24T14:57:40;13.00;99.90
35894;DHT22;21994;48.204;16.516;2023-04-24T15:00:06;13.00;99.90
35894;DHT22;21994;48.204;16.516;2023-04-24T15:02:36;12.90;99.90
35894;DHT22;21994;48.204;16.516;2023-04-24T15:05:06;12.90;99.90
35894;DHT22;21994;48.204;16.516;2023-04-24T15:07:33;12.80;99.90
35894;DHT22;21994;48.204;16.516;2023-04-24T15:10:02;12.90;99.90
35894;DHT22;21994;48.204;16.516;2023-04-24T15:12:31;13.00;99.90
35894;DHT22;21994;48.204;16.516;2023-04-24T15:14:58;12.90;99.90
35894;DHT22;21994;48.204;16.516;2023-04-24T15:17:24;12.90;99.90
35894;DHT22;21994;48.204;16.516;2023-04-24T15:19:51;12.90;99.90
35894;DHT22;21994;48.204;16.516;2023-04-24T15:22:17;12.90;99.90
35894;DHT22;21994;48.204;16.516;2023-04-24T15:24:42;13.00;99.90
35894;DHT22;21994;48.204;16.516;2023-04-24T15:27:10;13.10;99.90
35894;DHT22;21994;48.204;16.516;2023-04-24T15:29:36;13.10;99.90